createdAt,value
2018-10-09T00:00:38.299Z,9.30
2018-10-09T00:03:06.436Z,9.40
2018-10-09T00:05:34.609Z,9.50
2018-10-09T00:08:02.997Z,9.60
2018-10-09T00:10:31.555Z,9.70
2018-10-09T00:12:59.647Z,9.70
2018-10-09T00:15:27.825Z,9.70
2018-10-09T00:17:56.096Z,9.70
2018-10-09T00:20:25.144Z,9.60
2018-10-09T00:22:55.401Z,9.50
2018-10-09T00:25:23.858Z,9.40
2018-10-09T00:27:52.331Z,9.40
2018-10-09T00:30:20.519Z,9.40
2018-10-09T00:32:48.836Z,9.40
2018-10-09T00:35:17.056Z,9.40
2018-10-09T00:37:45.542Z,9.40
2018-10-09T00:40:13.833Z,9.40
2018-10-09T00:42:42.047Z,9.30
2018-10-09T00:45:10.303Z,9.30
2018-10-09T00:47:38.428Z,9.20
2018-10-09T00:50:06.799Z,9.10
2018-10-09T00:52:34.927Z,9.20
2018-10-09T00:55:03.086Z,9.20
2018-10-09T00:57:31.359Z,9.20
2018-10-09T00:59:59.474Z,9.20
2018-10-09T01:02:27.844Z,9.20
2018-10-09T01:04:56.016Z,9.10
2018-10-09T01:07:24.427Z,9.10
2018-10-09T01:09:52.635Z,9.10
2018-10-09T01:12:20.739Z,9.00
2018-10-09T01:14:48.949Z,8.90
2018-10-09T01:17:17.108Z,9.00
2018-10-09T01:19:45.258Z,9.10
2018-10-09T01:22:13.428Z,9.20
2018-10-09T01:24:41.700Z,9.10
2018-10-09T01:27:10.060Z,9.10
2018-10-09T01:29:38.276Z,9.20
2018-10-09T01:32:06.522Z,9.20
2018-10-09T01:34:34.675Z,9.30
2018-10-09T01:37:02.839Z,9.30
2018-10-09T01:39:30.934Z,9.40
2018-10-09T01:41:59.099Z,9.40
2018-10-09T01:44:30.604Z,9.40
2018-10-09T01:46:58.781Z,9.40
2018-10-09T01:49:26.914Z,9.40
2018-10-09T01:51:54.998Z,9.40
2018-10-09T01:54:23.182Z,9.50
2018-10-09T01:56:51.354Z,9.50
2018-10-09T01:59:19.409Z,9.50
2018-10-09T02:01:47.462Z,9.60
2018-10-09T02:04:15.550Z,9.70
2018-10-09T02:06:43.666Z,9.60
2018-10-09T02:09:11.849Z,9.80
2018-10-09T02:11:40.007Z,9.80
2018-10-09T02:14:08.188Z,9.90
2018-10-09T02:16:36.369Z,9.90
2018-10-09T02:19:04.511Z,9.90
2018-10-09T02:21:32.583Z,9.90
2018-10-09T02:24:00.652Z,9.80
2018-10-09T02:26:28.780Z,9.80
2018-10-09T02:28:56.905Z,9.80
2018-10-09T02:31:25.139Z,9.90
2018-10-09T02:33:53.351Z,9.90
2018-10-09T02:36:21.546Z,9.80
2018-10-09T02:38:49.759Z,9.70
2018-10-09T02:41:17.965Z,9.70
2018-10-09T02:43:46.023Z,9.70
2018-10-09T02:46:14.367Z,9.60
2018-10-09T02:48:42.567Z,9.70
2018-10-09T02:51:10.688Z,9.70
2018-10-09T02:53:38.885Z,9.70
2018-10-09T02:56:07.082Z,9.60
2018-10-09T02:58:35.309Z,9.60
2018-10-09T03:01:03.599Z,9.50
2018-10-09T03:03:31.758Z,9.60
2018-10-09T03:05:59.902Z,9.50
2018-10-09T03:08:28.124Z,9.60
2018-10-09T03:10:56.378Z,9.60
2018-10-09T03:13:24.624Z,9.60
2018-10-09T03:15:52.702Z,9.50
2018-10-09T03:18:20.779Z,9.50
2018-10-09T03:20:48.889Z,9.40
2018-10-09T03:23:17.072Z,9.40
2018-10-09T03:25:45.248Z,9.60
2018-10-09T03:28:13.378Z,9.50
2018-10-09T03:30:41.503Z,9.50
2018-10-09T03:33:09.628Z,9.50
2018-10-09T03:35:37.744Z,9.50
2018-10-09T03:38:06.008Z,9.50
2018-10-09T03:40:34.181Z,9.50
2018-10-09T03:43:02.356Z,9.50
2018-10-09T03:45:30.533Z,9.50
2018-10-09T03:47:58.669Z,9.50
2018-10-09T03:50:26.787Z,9.50
2018-10-09T03:52:54.906Z,9.40
2018-10-09T03:55:23.069Z,9.40
2018-10-09T03:57:51.272Z,9.40
2018-10-09T04:00:19.506Z,9.40
2018-10-09T04:02:47.668Z,9.40
2018-10-09T04:05:15.848Z,9.40
2018-10-09T04:07:43.967Z,9.30
2018-10-09T04:10:12.079Z,9.30
2018-10-09T04:12:40.343Z,9.30
2018-10-09T04:15:08.543Z,9.20
2018-10-09T04:17:36.892Z,9.20
2018-10-09T04:20:05.467Z,9.10
2018-10-09T04:22:33.791Z,9.10
2018-10-09T04:25:01.947Z,9.00
2018-10-09T04:27:30.111Z,9.00
2018-10-09T04:29:59.159Z,9.00
2018-10-09T04:32:27.294Z,8.90
2018-10-09T04:34:55.464Z,9.00
2018-10-09T04:37:23.831Z,8.90
2018-10-09T04:39:52.125Z,8.90
2018-10-09T04:42:20.761Z,8.90
2018-10-09T04:44:48.838Z,8.90
2018-10-09T04:47:16.920Z,8.90
2018-10-09T04:49:45.217Z,8.80
2018-10-09T04:52:13.493Z,8.80
2018-10-09T04:54:41.683Z,8.70
2018-10-09T04:57:09.867Z,8.80
2018-10-09T04:59:38.078Z,8.80
2018-10-09T05:02:06.214Z,8.80
2018-10-09T05:04:34.291Z,8.90
2018-10-09T05:07:02.398Z,8.80
2018-10-09T05:09:30.529Z,8.80
2018-10-09T05:11:58.696Z,8.80
2018-10-09T05:14:26.882Z,8.80
2018-10-09T05:16:55.033Z,8.90
2018-10-09T05:19:23.172Z,8.90
2018-10-09T05:21:51.303Z,8.90
2018-10-09T05:24:19.443Z,9.00
2018-10-09T05:26:47.660Z,9.00
2018-10-09T05:29:15.813Z,9.10
2018-10-09T05:31:44.061Z,9.10
2018-10-09T05:34:12.151Z,9.00
2018-10-09T05:36:40.315Z,9.10
2018-10-09T05:39:08.900Z,9.10
2018-10-09T05:41:37.459Z,9.20
2018-10-09T05:44:05.997Z,9.20
2018-10-09T05:46:34.168Z,9.30
2018-10-09T05:49:02.351Z,9.30
2018-10-09T05:51:30.548Z,9.30
2018-10-09T05:53:58.746Z,9.30
2018-10-09T05:56:26.859Z,9.40
2018-10-09T05:58:54.918Z,9.40
2018-10-09T06:01:23.376Z,9.40
2018-10-09T06:03:51.844Z,9.50
2018-10-09T06:06:20.051Z,9.50
2018-10-09T06:08:48.267Z,9.60
2018-10-09T06:11:16.472Z,9.60
2018-10-09T06:13:44.849Z,9.70
2018-10-09T06:16:13.042Z,9.80
2018-10-09T06:18:41.231Z,9.80
2018-10-09T06:21:09.471Z,9.90
2018-10-09T06:23:37.812Z,9.90
2018-10-09T06:26:05.980Z,10.00
2018-10-09T06:28:34.198Z,10.10
2018-10-09T06:31:02.330Z,10.20
2018-10-09T06:33:30.441Z,10.20
2018-10-09T06:35:58.909Z,10.30
2018-10-09T06:38:27.088Z,10.30
2018-10-09T06:40:55.257Z,10.30
2018-10-09T06:43:23.463Z,10.40
2018-10-09T06:45:51.623Z,10.50
2018-10-09T06:48:19.784Z,10.60
2018-10-09T06:50:47.993Z,10.60
2018-10-09T06:53:16.162Z,10.60
2018-10-09T06:55:44.380Z,10.70
2018-10-09T06:58:12.500Z,10.90
2018-10-09T07:00:40.683Z,11.00
2018-10-09T07:03:08.874Z,11.10
2018-10-09T07:05:37.030Z,11.20
2018-10-09T07:08:05.249Z,11.40
2018-10-09T07:10:33.363Z,11.50
2018-10-09T07:13:01.576Z,11.60
2018-10-09T07:15:29.731Z,11.70
2018-10-09T07:17:57.961Z,11.90
2018-10-09T07:20:26.193Z,12.20
2018-10-09T07:22:54.347Z,12.30
2018-10-09T07:25:22.540Z,12.30
2018-10-09T07:27:50.746Z,12.40
2018-10-09T07:30:18.858Z,12.40
2018-10-09T07:32:47.051Z,12.40
2018-10-09T07:35:15.241Z,12.70
2018-10-09T07:37:43.513Z,12.80
2018-10-09T07:40:11.334Z,13.00
2018-10-09T07:42:39.550Z,13.00
2018-10-09T07:45:07.753Z,13.10
2018-10-09T07:47:35.873Z,13.00
2018-10-09T07:50:04.360Z,13.10
2018-10-09T07:52:32.542Z,13.00
2018-10-09T07:55:00.740Z,12.80
2018-10-09T07:57:28.912Z,12.60
2018-10-09T07:59:57.055Z,12.70
2018-10-09T08:02:25.257Z,12.90
2018-10-09T08:04:53.512Z,13.10
2018-10-09T08:07:21.606Z,13.30
2018-10-09T08:09:49.760Z,13.60
2018-10-09T08:12:17.961Z,13.90
2018-10-09T08:14:46.182Z,14.20
2018-10-09T08:17:14.403Z,14.80
2018-10-09T08:19:42.564Z,14.80
2018-10-09T08:22:10.820Z,15.10
2018-10-09T08:24:38.993Z,15.30
2018-10-09T08:27:07.232Z,15.70
2018-10-09T08:29:35.513Z,16.20
2018-10-09T08:32:03.644Z,16.70
2018-10-09T08:34:31.867Z,16.90
2018-10-09T08:36:59.973Z,16.80
2018-10-09T08:39:28.184Z,17.30
2018-10-09T08:41:56.329Z,17.30
2018-10-09T08:44:24.505Z,17.00
2018-10-09T08:46:52.692Z,17.20
2018-10-09T08:49:20.865Z,16.90
2018-10-09T08:51:49.100Z,16.90
2018-10-09T08:54:17.216Z,17.40
2018-10-09T08:56:45.395Z,18.00
2018-10-09T08:59:13.590Z,18.40
2018-10-09T09:01:41.774Z,19.00
2018-10-09T09:04:09.926Z,18.90
2018-10-09T09:06:38.104Z,19.40
2018-10-09T09:09:08.703Z,19.90
2018-10-09T09:11:37.085Z,20.20
2018-10-09T09:14:05.296Z,19.90
2018-10-09T09:16:33.685Z,19.70
2018-10-09T09:19:01.911Z,20.30
2018-10-09T09:21:30.704Z,20.90
2018-10-09T09:23:58.899Z,21.20
2018-10-09T09:26:27.190Z,21.00
2018-10-09T09:28:55.322Z,20.40
2018-10-09T09:31:23.509Z,20.20
2018-10-09T09:33:51.682Z,19.80
2018-10-09T09:36:19.958Z,19.50
2018-10-09T09:38:48.128Z,19.40
2018-10-09T09:41:16.361Z,20.50
2018-10-09T09:43:44.512Z,21.10
2018-10-09T09:46:12.716Z,21.00
2018-10-09T09:48:40.894Z,21.20
2018-10-09T09:51:09.001Z,20.90
2018-10-09T09:53:37.204Z,20.60
2018-10-09T09:56:05.381Z,20.20
2018-10-09T09:58:33.696Z,19.70
2018-10-09T10:01:07.665Z,20.30
2018-10-09T10:03:36.585Z,20.50
2018-10-09T10:06:04.921Z,21.40
2018-10-09T10:08:33.114Z,21.40
2018-10-09T10:11:01.269Z,21.00
2018-10-09T10:13:29.443Z,20.70
2018-10-09T10:15:57.666Z,20.50
2018-10-09T10:18:25.877Z,20.90
2018-10-09T10:20:54.075Z,21.30
2018-10-09T10:23:22.220Z,21.20
2018-10-09T10:25:50.412Z,20.90
2018-10-09T10:28:18.615Z,21.70
2018-10-09T10:30:47.075Z,22.00
2018-10-09T10:33:15.433Z,22.20
2018-10-09T10:35:43.700Z,23.40
2018-10-09T10:38:11.860Z,24.10
2018-10-09T10:40:40.017Z,23.20
2018-10-09T10:43:08.188Z,23.90
2018-10-09T10:45:36.356Z,24.50
2018-10-09T10:48:04.501Z,25.10
2018-10-09T10:50:32.700Z,25.10
2018-10-09T10:53:00.888Z,24.70
2018-10-09T10:55:29.046Z,24.20
2018-10-09T10:57:57.218Z,24.80
2018-10-09T11:00:25.373Z,25.60
2018-10-09T11:02:53.526Z,25.10
2018-10-09T11:05:21.760Z,24.20
2018-10-09T11:07:50.619Z,24.80
2018-10-09T11:10:18.810Z,26.10
2018-10-09T11:12:47.060Z,26.60
2018-10-09T11:15:15.258Z,26.00
2018-10-09T11:17:43.526Z,26.20
2018-10-09T11:20:11.749Z,26.60
2018-10-09T11:22:39.979Z,26.00
2018-10-09T11:25:08.207Z,26.80
2018-10-09T11:27:36.469Z,26.80
2018-10-09T11:30:04.708Z,26.70
2018-10-09T11:32:32.949Z,26.40
2018-10-09T11:35:01.127Z,24.90
2018-10-09T11:37:29.353Z,25.20
2018-10-09T11:39:57.538Z,26.00
2018-10-09T11:42:25.726Z,25.40
2018-10-09T11:44:53.896Z,26.20
2018-10-09T11:47:22.058Z,26.70
2018-10-09T11:49:50.218Z,27.50
2018-10-09T11:52:18.467Z,27.70
2018-10-09T11:54:46.621Z,27.30
2018-10-09T11:57:14.825Z,27.00
2018-10-09T11:59:43.014Z,27.70
2018-10-09T12:02:11.165Z,28.30
2018-10-09T12:04:39.341Z,28.70
2018-10-09T12:07:07.423Z,28.80
2018-10-09T12:09:35.621Z,28.40
2018-10-09T12:12:03.827Z,27.60
2018-10-09T12:14:32.052Z,28.40
2018-10-09T12:17:00.299Z,27.30
2018-10-09T12:19:28.388Z,27.00
2018-10-09T12:21:56.770Z,27.30
2018-10-09T12:24:24.993Z,27.20
2018-10-09T12:26:53.173Z,28.20
2018-10-09T12:29:21.375Z,29.40
2018-10-09T12:31:49.692Z,29.20
2018-10-09T12:34:17.944Z,29.40
2018-10-09T12:36:46.048Z,28.30
2018-10-09T12:39:14.549Z,28.50
2018-10-09T12:41:42.807Z,29.00
2018-10-09T12:44:11.110Z,27.60
2018-10-09T12:46:39.868Z,27.60
2018-10-09T12:49:08.479Z,27.20
2018-10-09T12:51:36.753Z,27.20
2018-10-09T12:54:05.015Z,27.20
2018-10-09T12:56:33.602Z,26.60
2018-10-09T12:59:01.842Z,26.50
2018-10-09T13:01:29.940Z,27.10
2018-10-09T13:03:58.597Z,27.20
2018-10-09T13:06:26.853Z,27.10
2018-10-09T13:08:55.157Z,27.10
2018-10-09T13:11:23.477Z,26.40
2018-10-09T13:13:53.564Z,26.50
2018-10-09T13:16:21.756Z,27.20
2018-10-09T13:18:49.983Z,26.80
2018-10-09T13:21:18.250Z,27.20
2018-10-09T13:23:46.240Z,27.70
2018-10-09T13:26:14.913Z,28.30
2018-10-09T13:28:43.140Z,28.30
2018-10-09T13:31:11.357Z,27.90
2018-10-09T13:33:39.503Z,28.40
2018-10-09T13:36:08.014Z,27.20
2018-10-09T13:38:36.231Z,27.70
2018-10-09T13:41:04.525Z,27.60
2018-10-09T13:43:32.781Z,28.00
2018-10-09T13:46:01.004Z,27.80
2018-10-09T13:48:29.419Z,28.00
2018-10-09T13:50:57.747Z,28.00
2018-10-09T13:53:25.964Z,26.90
2018-10-09T13:55:54.278Z,26.90
2018-10-09T13:58:23.689Z,26.80
2018-10-09T14:00:51.860Z,27.10
2018-10-09T14:03:20.153Z,27.70
2018-10-09T14:05:48.271Z,27.10
2018-10-09T14:08:16.464Z,27.20
2018-10-09T14:10:44.661Z,26.00
2018-10-09T14:13:12.833Z,26.20
2018-10-09T14:15:41.121Z,26.60
2018-10-09T14:18:09.312Z,26.30
2018-10-09T14:20:37.492Z,26.70
2018-10-09T14:23:06.062Z,26.30
2018-10-09T14:25:34.225Z,25.90
2018-10-09T14:28:02.418Z,25.60
2018-10-09T14:30:30.556Z,26.10
2018-10-09T14:32:58.856Z,26.00
2018-10-09T14:35:27.031Z,25.70
2018-10-09T14:37:55.262Z,25.80
2018-10-09T14:40:23.395Z,25.90
2018-10-09T14:42:51.616Z,26.10
2018-10-09T14:45:19.835Z,26.40
2018-10-09T14:47:48.048Z,26.80
2018-10-09T14:50:16.148Z,26.40
2018-10-09T14:52:44.228Z,26.30
2018-10-09T14:55:12.434Z,26.20
2018-10-09T15:00:36.627Z,25.20
2018-10-09T15:03:04.804Z,24.70
2018-10-09T15:05:32.981Z,24.70
2018-10-09T15:08:01.370Z,24.50
2018-10-09T15:10:29.957Z,24.30
2018-10-09T15:12:58.107Z,24.30
2018-10-09T15:15:26.320Z,24.30
2018-10-09T15:17:54.476Z,24.40
2018-10-09T15:20:22.668Z,24.30
2018-10-09T15:22:50.795Z,24.20
2018-10-09T15:25:18.957Z,23.80
2018-10-09T15:27:47.160Z,23.50
2018-10-09T15:30:16.887Z,23.50
2018-10-09T15:39:45.459Z,23.00
2018-10-09T15:42:13.624Z,22.30
2018-10-09T15:44:42.039Z,22.00
2018-10-09T15:47:10.277Z,21.70
2018-10-09T15:49:38.477Z,21.50
2018-10-09T15:52:06.735Z,21.40
2018-10-09T15:54:34.898Z,21.30
2018-10-09T15:57:03.097Z,21.20
2018-10-09T15:59:31.537Z,21.10
2018-10-09T16:01:59.789Z,20.90
2018-10-09T16:04:27.973Z,20.90
2018-10-09T16:06:56.132Z,20.70
2018-10-09T16:09:24.283Z,20.50
2018-10-09T16:11:52.492Z,20.10
2018-10-09T16:14:20.673Z,19.90
2018-10-09T16:16:48.975Z,19.70
2018-10-09T16:19:17.088Z,19.60
2018-10-09T16:21:45.302Z,19.60
2018-10-09T16:24:15.253Z,19.40
2018-10-09T16:26:43.424Z,19.30
2018-10-09T16:29:12.540Z,19.10
2018-10-09T16:31:40.922Z,19.10
2018-10-09T16:34:09.160Z,19.00
2018-10-09T16:36:37.330Z,18.80
2018-10-09T16:39:08.185Z,18.70
2018-10-09T16:41:36.453Z,18.70
2018-10-09T16:44:04.552Z,18.40
2018-10-09T16:46:32.862Z,18.30
2018-10-09T16:49:01.378Z,18.30
2018-10-09T16:51:29.928Z,18.20
2018-10-09T16:53:58.174Z,18.20
2018-10-09T16:56:26.477Z,18.10
2018-10-09T16:58:54.831Z,18.00
2018-10-09T17:01:23.092Z,17.90
2018-10-09T17:03:52.294Z,17.80
2018-10-09T17:06:20.488Z,17.70
2018-10-09T17:08:48.753Z,17.60
2018-10-09T17:11:17.069Z,17.60
2018-10-09T17:13:45.256Z,17.60
2018-10-09T17:16:13.695Z,17.50
2018-10-09T17:18:42.239Z,17.40
2018-10-09T17:21:10.939Z,17.40
2018-10-09T17:23:39.252Z,17.20
2018-10-09T17:26:07.822Z,17.10
2018-10-09T17:28:37.129Z,17.00
2018-10-09T17:31:05.356Z,17.00
2018-10-09T17:33:33.643Z,16.90
2018-10-09T17:36:01.872Z,16.90
2018-10-09T17:38:30.083Z,16.70
2018-10-09T17:40:58.235Z,16.60
2018-10-09T17:43:26.390Z,16.50
2018-10-09T17:45:54.671Z,16.40
2018-10-09T17:48:22.910Z,16.40
2018-10-09T17:50:51.080Z,16.50
2018-10-09T17:53:20.195Z,16.40
2018-10-09T17:55:48.394Z,16.30
2018-10-09T17:58:16.558Z,16.30
2018-10-09T18:00:44.792Z,16.20
2018-10-09T18:03:13.462Z,16.10
2018-10-09T18:05:41.644Z,16.00
2018-10-09T18:08:09.903Z,15.90
2018-10-09T18:10:38.779Z,15.90
2018-10-09T18:13:07.030Z,15.80
2018-10-09T18:15:35.297Z,15.80
2018-10-09T18:18:03.421Z,15.70
2018-10-09T18:20:31.622Z,15.60
2018-10-09T18:22:59.810Z,15.60
2018-10-09T18:25:28.011Z,15.50
2018-10-09T18:27:56.209Z,15.40
2018-10-09T18:30:24.637Z,15.40
2018-10-09T18:32:53.049Z,15.30
2018-10-09T18:35:20.949Z,15.30
2018-10-09T18:37:49.121Z,15.20
2018-10-09T18:40:17.274Z,15.20
2018-10-09T18:42:45.549Z,15.10
2018-10-09T18:45:13.833Z,15.00
2018-10-09T18:47:43.166Z,15.00
2018-10-09T18:50:11.897Z,14.90
2018-10-09T18:52:40.597Z,14.90
2018-10-09T18:55:10.525Z,14.90
2018-10-09T18:57:38.720Z,14.80
2018-10-09T19:00:07.982Z,14.80
2018-10-09T19:02:36.183Z,14.70
2018-10-09T19:05:04.558Z,14.60
2018-10-09T19:07:33.052Z,14.60
2018-10-09T19:10:01.229Z,14.50
2018-10-09T19:12:29.405Z,14.40
2018-10-09T19:14:57.648Z,14.30
2018-10-09T19:17:25.883Z,14.30
2018-10-09T19:19:54.003Z,14.20
2018-10-09T19:22:22.360Z,14.10
2018-10-09T19:24:50.508Z,13.90
2018-10-09T19:27:18.666Z,13.80
2018-10-09T19:29:46.853Z,13.90
2018-10-09T19:32:15.001Z,13.90
2018-10-09T19:34:43.160Z,13.90
2018-10-09T19:37:11.340Z,13.90
2018-10-09T19:39:39.534Z,13.90
2018-10-09T19:42:07.937Z,13.90
2018-10-09T19:44:37.118Z,13.90
2018-10-09T19:47:05.273Z,13.80
2018-10-09T19:49:33.558Z,13.80
2018-10-09T19:52:01.801Z,13.70
2018-10-09T19:54:29.904Z,13.60
2018-10-09T19:56:58.044Z,13.50
2018-10-09T19:59:26.759Z,13.50
2018-10-09T20:01:54.784Z,13.40
2018-10-09T20:04:23.107Z,13.40
2018-10-09T20:06:51.393Z,13.50
2018-10-09T20:09:19.643Z,13.40
2018-10-09T20:11:47.835Z,13.40
2018-10-09T20:14:16.011Z,13.30
2018-10-09T20:16:45.189Z,13.30
2018-10-09T20:19:13.448Z,13.20
2018-10-09T20:21:41.756Z,13.20
2018-10-09T20:24:10.859Z,13.20
2018-10-09T20:26:39.034Z,13.20
2018-10-09T20:29:07.197Z,13.20
2018-10-09T20:31:35.366Z,13.10
2018-10-09T20:34:03.512Z,13.00
2018-10-09T20:36:31.569Z,12.90
2018-10-09T20:38:59.948Z,12.80
2018-10-09T20:41:28.044Z,12.80
2018-10-09T20:43:56.195Z,12.70
2018-10-09T20:46:24.380Z,12.60
2018-10-09T20:48:52.479Z,12.50
2018-10-09T20:51:20.641Z,12.40
2018-10-09T20:53:48.834Z,12.40
2018-10-09T20:56:16.996Z,12.30
2018-10-09T20:58:45.052Z,12.30
2018-10-09T21:01:13.255Z,12.20
2018-10-09T21:03:41.457Z,12.10
2018-10-09T21:06:09.663Z,12.00
2018-10-09T21:08:37.673Z,12.00
2018-10-09T21:11:05.837Z,12.00
2018-10-09T21:13:34.022Z,11.90
2018-10-09T21:16:02.210Z,11.90
2018-10-09T21:18:30.328Z,11.80
2018-10-09T21:20:58.434Z,11.70
2018-10-09T21:26:09.212Z,11.70
2018-10-09T21:28:37.316Z,11.60
2018-10-09T21:31:05.600Z,11.60
2018-10-09T21:33:33.753Z,11.50
2018-10-09T21:36:01.913Z,11.40
2018-10-09T21:38:30.118Z,11.50
2018-10-09T21:40:58.259Z,11.60
2018-10-09T21:43:26.352Z,11.70
2018-10-09T21:45:54.523Z,11.90
2018-10-09T21:48:22.701Z,11.90
2018-10-09T21:50:50.941Z,12.00
2018-10-09T21:53:19.015Z,11.90
2018-10-09T21:55:47.072Z,11.90
2018-10-09T21:58:15.201Z,11.90
2018-10-09T22:00:48.839Z,11.90
2018-10-09T22:03:17.029Z,11.90
2018-10-09T22:05:45.139Z,11.90
2018-10-09T22:08:13.204Z,11.90
2018-10-09T22:10:41.377Z,11.90
2018-10-09T22:13:09.557Z,11.90
2018-10-09T22:15:37.708Z,11.90
2018-10-09T22:18:05.804Z,12.00
2018-10-09T22:20:33.997Z,12.00
2018-10-09T22:23:02.163Z,11.90
2018-10-09T22:25:30.308Z,11.90
2018-10-09T22:27:58.380Z,12.00
2018-10-09T22:30:26.429Z,12.00
2018-10-09T22:32:54.523Z,12.00
2018-10-09T22:35:22.613Z,11.90
2018-10-09T22:37:50.760Z,11.90
2018-10-09T22:40:18.876Z,11.90
2018-10-09T22:42:47.054Z,11.90
2018-10-09T22:45:15.383Z,11.90
2018-10-09T22:47:43.484Z,11.90
2018-10-09T22:50:11.873Z,11.80
2018-10-09T22:52:40.027Z,11.70
2018-10-09T22:55:08.907Z,11.60
2018-10-09T22:57:37.284Z,11.40
2018-10-09T23:00:05.388Z,11.30
2018-10-09T23:02:33.565Z,11.30
2018-10-09T23:05:01.722Z,11.30
2018-10-09T23:07:29.812Z,11.30
2018-10-09T23:09:58.053Z,11.20
2018-10-09T23:12:26.125Z,11.20
2018-10-09T23:14:54.257Z,11.10
2018-10-09T23:17:22.413Z,11.00
2018-10-09T23:19:50.529Z,10.90
2018-10-09T23:22:18.680Z,10.90
2018-10-09T23:24:46.817Z,10.80
2018-10-09T23:27:14.988Z,10.90
2018-10-09T23:29:43.056Z,10.90
2018-10-09T23:32:11.145Z,10.80
2018-10-09T23:34:39.295Z,10.80
2018-10-09T23:37:07.719Z,10.80
2018-10-09T23:39:35.851Z,10.80
2018-10-09T23:42:03.914Z,10.70
2018-10-09T23:44:31.990Z,10.70
2018-10-09T23:47:00.093Z,10.80
2018-10-09T23:49:28.237Z,10.80
2018-10-09T23:51:56.295Z,10.80
2018-10-09T23:54:24.503Z,10.70
2018-10-09T23:56:52.785Z,10.60
2018-10-09T23:59:20.916Z,10.40
